createdAt,value
2019-02-07T00:01:29.586Z,2.05
2019-02-07T00:06:38.635Z,1.90
2019-02-07T00:11:47.490Z,1.78
2019-02-07T00:16:56.854Z,2.17
2019-02-07T00:22:05.707Z,1.84
2019-02-07T00:27:14.715Z,1.75
2019-02-07T00:32:23.658Z,1.74
2019-02-07T00:37:32.570Z,2.06
2019-02-07T00:42:41.399Z,1.31
2019-02-07T00:47:50.287Z,1.13
2019-02-07T00:52:59.191Z,1.64
2019-02-07T00:58:08.061Z,3.73
2019-02-07T01:03:16.913Z,2.51
2019-02-07T01:08:25.818Z,3.95
2019-02-07T01:13:34.678Z,3.20
2019-02-07T01:18:43.594Z,2.88
2019-02-07T01:23:52.574Z,4.35
2019-02-07T01:29:00.990Z,4.79
2019-02-07T01:34:09.867Z,3.44
2019-02-07T01:39:18.784Z,4.16
2019-02-07T01:44:27.579Z,3.37
2019-02-07T01:49:36.486Z,2.77
2019-02-07T01:54:45.306Z,2.31
2019-02-07T01:59:54.262Z,2.37
2019-02-07T02:05:03.064Z,2.61
2019-02-07T02:10:11.950Z,1.96
2019-02-07T02:15:24.501Z,1.94
2019-02-07T02:20:29.193Z,2.32
2019-02-07T02:25:38.012Z,2.26
2019-02-07T02:30:46.984Z,2.55
2019-02-07T02:35:55.786Z,2.44
2019-02-07T02:41:04.703Z,2.43
2019-02-07T02:46:13.611Z,2.02
2019-02-07T02:51:22.546Z,2.00
2019-02-07T02:56:31.387Z,2.44
2019-02-07T03:01:40.417Z,2.38
2019-02-07T03:06:49.293Z,2.45
2019-02-07T03:11:58.195Z,2.47
2019-02-07T03:17:07.034Z,2.55
2019-02-07T03:22:15.947Z,2.99
2019-02-07T03:27:24.803Z,2.95
2019-02-07T03:32:33.733Z,2.39
2019-02-07T03:37:42.602Z,2.22
2019-02-07T03:42:51.496Z,2.16
2019-02-07T03:48:00.322Z,2.39
2019-02-07T03:53:09.242Z,2.88
2019-02-07T03:58:18.129Z,2.64
2019-02-07T04:03:27.202Z,2.04
2019-02-07T04:08:36.054Z,2.62
2019-02-07T04:13:44.969Z,2.33
2019-02-07T04:18:53.802Z,1.72
2019-02-07T04:24:02.701Z,2.37
2019-02-07T04:29:11.729Z,2.19
2019-02-07T04:34:21.543Z,2.48
2019-02-07T04:39:30.409Z,3.03
2019-02-07T04:44:39.336Z,2.78
2019-02-07T04:49:48.177Z,2.56
2019-02-07T04:54:57.092Z,2.18
2019-02-07T05:00:05.972Z,1.99
2019-02-07T05:05:14.858Z,2.52
2019-02-07T05:10:23.662Z,2.28
2019-02-07T05:15:32.599Z,2.45
2019-02-07T05:20:41.783Z,2.10
2019-02-07T05:25:50.703Z,2.50
2019-02-07T05:30:59.508Z,2.39
2019-02-07T05:36:08.534Z,2.50
2019-02-07T05:41:17.370Z,1.93
2019-02-07T05:46:26.375Z,1.65
2019-02-07T05:51:35.219Z,1.97
2019-02-07T05:56:44.142Z,1.75
2019-02-07T06:01:53.069Z,1.80
2019-02-07T06:07:02.055Z,2.06
2019-02-07T06:12:10.935Z,2.21
2019-02-07T06:17:19.943Z,1.80
2019-02-07T06:22:28.801Z,1.85
2019-02-07T06:27:37.809Z,1.64
2019-02-07T06:32:46.771Z,1.57
2019-02-07T06:37:55.658Z,2.22
2019-02-07T06:43:04.523Z,2.40
2019-02-07T06:48:13.435Z,1.89
2019-02-07T06:53:22.302Z,1.64
2019-02-07T06:58:31.285Z,2.27
2019-02-07T07:03:38.729Z,2.49
2019-02-07T07:08:47.747Z,2.17
2019-02-07T07:13:56.675Z,2.79
2019-02-07T07:19:05.601Z,2.23
2019-02-07T07:24:14.442Z,2.46
2019-02-07T07:29:21.958Z,2.63
2019-02-07T07:34:30.781Z,2.54
2019-02-07T07:39:39.718Z,2.16
2019-02-07T07:44:48.547Z,2.26
2019-02-07T07:49:57.450Z,1.68
2019-02-07T07:55:06.338Z,1.62
2019-02-07T08:00:15.238Z,1.44
2019-02-07T08:05:24.086Z,1.62
2019-02-07T08:10:33.094Z,1.92
2019-02-07T08:15:41.914Z,2.22
2019-02-07T08:20:50.826Z,1.82
2019-02-07T08:25:59.662Z,2.26
2019-02-07T08:31:08.554Z,2.13
2019-02-07T08:36:17.408Z,2.47
2019-02-07T08:41:26.347Z,1.89
2019-02-07T08:46:35.187Z,1.69
2019-02-07T08:51:44.066Z,1.69
2019-02-07T08:56:52.891Z,1.93
2019-02-07T09:02:01.783Z,1.73
2019-02-07T09:07:10.677Z,2.01
2019-02-07T09:12:19.676Z,1.79
2019-02-07T09:17:28.518Z,1.64
2019-02-07T09:22:37.502Z,1.86
2019-02-07T09:27:46.338Z,1.94
2019-02-07T09:32:55.613Z,1.74
2019-02-07T09:38:04.490Z,1.70
2019-02-07T09:43:13.409Z,1.59
2019-02-07T09:48:22.578Z,1.48
2019-02-07T09:53:31.502Z,2.05
2019-02-07T09:58:40.345Z,1.99
2019-02-07T10:03:49.234Z,1.88
2019-02-07T10:08:58.098Z,1.58
2019-02-07T10:14:09.545Z,1.50
2019-02-07T10:19:08.365Z,1.64
2019-02-07T10:24:24.539Z,1.73
2019-02-07T10:29:23.381Z,1.73
2019-02-07T10:34:32.310Z,1.82
2019-02-07T10:39:41.169Z,1.59
2019-02-07T10:44:50.087Z,1.67
2019-02-07T10:49:59.634Z,1.95
2019-02-07T10:55:07.598Z,1.79
2019-02-07T11:00:16.483Z,2.04
2019-02-07T11:05:25.746Z,2.49
2019-02-07T11:10:34.590Z,1.99
2019-02-07T11:15:43.530Z,2.06
2019-02-07T11:20:52.598Z,1.48
2019-02-07T11:26:01.512Z,1.29
2019-02-07T11:31:10.422Z,1.56
2019-02-07T11:36:19.302Z,1.79
2019-02-07T11:41:28.174Z,2.35
2019-02-07T11:46:37.790Z,2.56
2019-02-07T11:51:45.547Z,1.33
2019-02-07T11:56:54.527Z,2.04
2019-02-07T12:02:09.257Z,1.98
2019-02-07T12:07:11.831Z,1.97
2019-02-07T12:12:20.679Z,2.22
2019-02-07T12:17:29.106Z,2.23
2019-02-07T12:22:38.043Z,2.42
2019-02-07T12:27:46.790Z,2.46
2019-02-07T12:32:55.918Z,1.46
2019-02-07T12:38:04.828Z,1.73
2019-02-07T12:43:13.637Z,2.13
2019-02-07T12:48:22.608Z,2.37
2019-02-07T12:53:31.457Z,2.19
2019-02-07T12:58:40.358Z,2.29
2019-02-07T13:03:49.291Z,2.43
2019-02-07T13:08:58.278Z,2.28
2019-02-07T13:14:07.863Z,2.16
2019-02-07T13:19:16.812Z,0.82
2019-02-07T13:24:28.242Z,0.89
2019-02-07T13:29:27.060Z,1.73
2019-02-07T13:34:36.010Z,1.77
2019-02-07T13:39:44.956Z,2.50
2019-02-07T13:44:53.831Z,2.17
2019-02-07T13:50:02.779Z,2.13
2019-02-07T13:55:11.851Z,2.59
2019-02-07T14:00:23.388Z,2.37
2019-02-07T14:05:29.453Z,2.30
2019-02-07T14:10:38.543Z,1.71
2019-02-07T14:15:47.453Z,2.09
2019-02-07T14:20:56.824Z,2.96
2019-02-07T14:26:05.788Z,2.53
2019-02-07T14:31:14.791Z,2.92
2019-02-07T14:36:23.746Z,3.16
2019-02-07T14:41:32.659Z,2.26
2019-02-07T14:46:41.598Z,1.10
2019-02-07T14:51:51.480Z,1.14
2019-02-07T14:57:00.952Z,1.08
2019-02-07T15:02:09.831Z,1.26
2019-02-07T15:07:18.639Z,1.38
2019-02-07T15:12:27.550Z,1.34
2019-02-07T15:17:36.405Z,1.26
2019-02-07T15:22:45.311Z,2.16
2019-02-07T15:27:53.697Z,2.27
2019-02-07T15:33:02.759Z,2.36
2019-02-07T15:38:11.609Z,2.33
2019-02-07T15:43:20.550Z,2.22
2019-02-07T15:48:29.442Z,2.20
2019-02-07T15:53:38.365Z,2.52
2019-02-07T15:58:47.235Z,2.54
2019-02-07T16:03:56.198Z,2.43
2019-02-07T16:09:05.246Z,2.66
2019-02-07T16:14:14.152Z,2.30
2019-02-07T16:19:23.017Z,2.49
2019-02-07T16:24:31.997Z,2.25
2019-02-07T16:29:40.903Z,2.37
2019-02-07T16:34:49.883Z,2.22
2019-02-07T16:39:58.731Z,1.96
2019-02-07T16:45:07.660Z,2.76
2019-02-07T16:50:19.276Z,2.29
2019-02-07T16:55:18.166Z,2.08
2019-02-07T17:00:27.039Z,2.41
2019-02-07T17:05:37.882Z,2.49
2019-02-07T17:10:44.976Z,2.70
2019-02-07T17:15:53.941Z,2.82
2019-02-07T17:21:11.544Z,2.57
2019-02-07T17:26:11.628Z,2.69
2019-02-07T17:31:20.469Z,2.38
2019-02-07T17:36:30.421Z,3.36
2019-02-07T17:41:39.254Z,2.12
2019-02-07T17:46:48.234Z,2.90
2019-02-07T17:51:57.105Z,7.02
2019-02-07T17:57:08.427Z,5.97
2019-02-07T18:02:11.035Z,2.55
2019-02-07T18:07:10.019Z,2.73
2019-02-07T18:12:18.875Z,3.46
2019-02-07T18:17:27.869Z,2.77
2019-02-07T18:22:36.744Z,2.81
2019-02-07T18:27:45.734Z,2.70
2019-02-07T18:32:54.575Z,2.49
2019-02-07T18:38:03.537Z,2.35
2019-02-07T18:43:12.390Z,2.33
2019-02-07T18:48:21.330Z,3.15
2019-02-07T18:53:31.203Z,3.03
2019-02-07T18:58:40.116Z,4.14
2019-02-07T19:03:48.923Z,10.20
2019-02-07T19:08:57.866Z,6.64
2019-02-07T19:14:06.748Z,7.62
2019-02-07T19:19:15.714Z,3.50
2019-02-07T19:24:24.651Z,4.41
2019-02-07T19:29:32.266Z,3.27
2019-02-07T19:34:41.106Z,2.70
2019-02-07T19:39:50.230Z,2.71
2019-02-07T19:44:59.158Z,3.16
2019-02-07T19:50:08.074Z,2.77
2019-02-07T19:55:16.966Z,2.74
2019-02-07T20:00:26.083Z,3.31
2019-02-07T20:05:34.986Z,2.36
2019-02-07T20:10:44.048Z,2.20
2019-02-07T20:15:52.895Z,2.21
2019-02-07T20:21:01.820Z,1.89
2019-02-07T20:26:13.002Z,1.88
2019-02-07T20:31:12.226Z,1.91
2019-02-07T20:36:18.910Z,1.67
2019-02-07T20:41:27.802Z,1.63
2019-02-07T20:46:36.675Z,1.91
2019-02-07T20:51:45.618Z,1.92
2019-02-07T20:56:54.563Z,1.79
2019-02-07T21:02:03.458Z,2.06
2019-02-07T21:07:12.321Z,1.43
2019-02-07T21:12:21.271Z,1.59
2019-02-07T21:17:30.149Z,1.73
2019-02-07T21:22:39.122Z,3.49
2019-02-07T21:27:47.991Z,2.53
2019-02-07T21:32:57.117Z,2.09
2019-02-07T21:38:05.976Z,2.39
2019-02-07T21:43:14.897Z,1.62
2019-02-07T21:48:23.967Z,1.60
2019-02-07T21:53:32.914Z,1.33
2019-02-07T21:58:41.772Z,1.80
2019-02-07T22:03:50.768Z,1.54
2019-02-07T22:08:59.655Z,1.33
2019-02-07T22:14:11.112Z,1.31
2019-02-07T22:19:09.915Z,1.75
2019-02-07T22:24:18.842Z,1.51
2019-02-07T22:29:27.687Z,9.83
2019-02-07T22:34:36.653Z,6.71
2019-02-07T22:39:45.490Z,4.31
2019-02-07T22:44:54.442Z,3.98
2019-02-07T22:50:04.330Z,1.60
2019-02-07T22:55:13.462Z,1.58
2019-02-07T23:00:22.856Z,1.24
2019-02-07T23:05:31.855Z,1.26
2019-02-07T23:10:40.715Z,0.93
2019-02-07T23:15:49.585Z,1.02
2019-02-07T23:20:58.414Z,1.13
2019-02-07T23:26:07.411Z,0.94
2019-02-07T23:31:17.159Z,1.00
2019-02-07T23:36:26.072Z,0.89
2019-02-07T23:41:34.913Z,0.74
2019-02-07T23:46:43.300Z,0.80
2019-02-07T23:51:52.639Z,1.24
2019-02-07T23:57:01.538Z,0.99
